createdAt,value
2022-09-16T00:01:10.290Z,14.27
2022-09-16T00:04:09.899Z,14.38
2022-09-16T00:09:09.279Z,14.39
2022-09-16T00:10:09.197Z,14.35
2022-09-16T00:11:09.321Z,14.36
2022-09-16T00:13:09.167Z,14.38
2022-09-16T00:16:09.005Z,14.41
2022-09-16T00:17:10.132Z,14.38
2022-09-16T00:18:09.693Z,14.32
2022-09-16T00:19:08.496Z,14.39
2022-09-16T00:21:08.545Z,14.38
2022-09-16T00:24:14.577Z,14.39
2022-09-16T00:26:08.366Z,14.36
2022-09-16T00:27:08.080Z,14.35
2022-09-16T00:28:08.000Z,14.34
2022-09-16T00:31:08.042Z,14.39
2022-09-16T00:36:07.782Z,14.38
2022-09-16T00:53:05.852Z,14.36
2022-09-16T00:54:05.982Z,14.41
2022-09-16T00:55:05.692Z,14.35
2022-09-16T00:56:05.785Z,14.41
2022-09-16T00:57:05.542Z,14.38
2022-09-16T00:58:05.457Z,14.42
2022-09-16T00:59:05.584Z,14.47
2022-09-16T01:00:05.265Z,14.39
2022-09-16T01:01:05.414Z,14.36
2022-09-16T01:02:05.235Z,14.50
2022-09-16T01:03:05.272Z,14.38
2022-09-16T01:04:05.445Z,14.38
2022-09-16T01:05:04.916Z,14.50
2022-09-16T01:06:04.836Z,14.36
2022-09-16T01:07:04.759Z,14.36
2022-09-16T01:08:04.678Z,14.38
2022-09-16T01:09:05.450Z,14.31
2022-09-16T01:10:04.729Z,14.31
2022-09-16T01:14:04.177Z,14.49
2022-09-16T01:16:04.108Z,14.47
2022-09-16T01:17:04.178Z,14.52
2022-09-16T01:18:04.106Z,14.44
2022-09-16T01:20:05.064Z,14.59
2022-09-16T01:22:03.896Z,14.47
2022-09-16T01:28:03.118Z,14.60
2022-09-16T01:29:03.351Z,14.61
2022-09-16T01:33:03.649Z,14.64
2022-09-16T01:36:02.463Z,14.50
2022-09-16T02:02:00.803Z,14.53
2022-09-16T02:03:01.169Z,14.42
2022-09-16T02:05:00.247Z,14.46
2022-09-16T02:11:01.261Z,14.49
2022-09-16T02:52:56.493Z,14.21
2022-09-16T02:53:56.397Z,14.21
2022-09-16T03:05:55.472Z,14.23
2022-09-16T03:06:55.390Z,14.20
2022-09-16T03:14:55.438Z,14.23
2022-09-16T03:15:54.791Z,14.24
2022-09-16T03:16:54.656Z,14.29
2022-09-16T03:18:54.496Z,14.32
2022-09-16T03:19:54.386Z,14.20
2022-09-16T03:20:54.310Z,14.19
2022-09-16T03:21:54.228Z,14.31
2022-09-16T03:22:54.150Z,14.36
2022-09-16T03:23:54.144Z,14.35
2022-09-16T03:24:53.997Z,14.29
2022-09-16T03:25:53.924Z,14.34
2022-09-16T03:26:53.849Z,14.31
2022-09-16T03:27:53.798Z,14.19
2022-09-16T03:28:53.722Z,14.27
2022-09-16T03:29:53.610Z,14.24
2022-09-16T03:30:53.912Z,14.23
2022-09-16T03:31:53.457Z,14.21
2022-09-16T03:33:53.337Z,14.14
2022-09-16T03:34:53.254Z,14.28
2022-09-16T03:35:53.182Z,14.27
2022-09-16T03:36:53.101Z,14.23
2022-09-16T03:37:53.078Z,14.20
2022-09-16T03:38:53.154Z,14.13
2022-09-16T03:39:52.888Z,14.13
2022-09-16T03:40:52.793Z,14.21
2022-09-16T03:41:52.716Z,14.20
2022-09-16T03:42:52.635Z,14.20
2022-09-16T03:44:52.486Z,14.21
2022-09-16T03:45:52.443Z,14.17
2022-09-16T03:46:52.637Z,14.11
2022-09-16T03:48:39.705Z,14.09
2022-09-16T03:49:39.834Z,14.09
2022-09-16T03:50:39.984Z,14.07
2022-09-16T03:51:39.509Z,14.07
2022-09-16T03:52:39.431Z,14.10
2022-09-16T03:53:39.319Z,14.10
2022-09-16T03:55:39.403Z,14.10
2022-09-16T03:56:39.829Z,14.13
2022-09-16T03:57:39.193Z,13.95
2022-09-16T03:58:38.928Z,13.99
2022-09-16T03:59:39.055Z,14.10
2022-09-16T04:00:39.011Z,14.09
2022-09-16T04:01:38.820Z,14.11
2022-09-16T04:02:38.968Z,13.96
2022-09-16T04:03:38.580Z,13.98
2022-09-16T04:04:38.502Z,14.10
2022-09-16T04:05:38.423Z,14.16
2022-09-16T04:06:38.344Z,14.10
2022-09-16T04:07:38.268Z,14.09
2022-09-16T04:08:38.394Z,14.16
2022-09-16T04:11:37.963Z,14.01
2022-09-16T04:12:37.877Z,13.99
2022-09-16T04:13:37.961Z,13.98
2022-09-16T04:14:37.724Z,14.01
2022-09-16T04:15:37.679Z,14.09
2022-09-16T04:16:37.572Z,14.10
2022-09-16T04:17:37.495Z,14.10
2022-09-16T04:18:37.620Z,13.99
2022-09-16T04:20:37.231Z,14.07
2022-09-16T04:21:37.386Z,13.92
2022-09-16T04:23:37.031Z,13.96
2022-09-16T04:25:37.022Z,13.92
2022-09-16T04:26:36.764Z,13.87
2022-09-16T04:27:36.919Z,13.94
2022-09-16T04:28:36.644Z,13.89
2022-09-16T04:29:36.875Z,13.92
2022-09-16T04:30:36.999Z,13.96
2022-09-16T04:31:36.413Z,13.89
2022-09-16T04:32:36.641Z,13.84
2022-09-16T04:33:36.254Z,13.94
2022-09-16T04:34:36.586Z,13.95
2022-09-16T04:36:36.228Z,13.92
2022-09-16T04:41:35.894Z,13.99
2022-09-16T04:42:35.554Z,13.99
2022-09-16T04:45:35.527Z,13.96
2022-09-16T04:53:35.583Z,13.96
2022-09-16T05:04:34.570Z,13.74
2022-09-16T05:05:34.589Z,13.71
2022-09-16T05:16:33.202Z,13.83
2022-09-16T05:19:32.896Z,13.84
2022-09-16T05:23:32.990Z,13.83
2022-09-16T05:24:35.643Z,13.86
2022-09-16T05:37:31.381Z,13.74
2022-09-16T05:43:31.238Z,13.91
2022-09-16T05:45:32.613Z,13.84
2022-09-16T05:49:31.173Z,13.86
2022-09-16T05:52:30.556Z,13.84
2022-09-16T05:54:30.296Z,13.96
2022-09-16T05:55:30.208Z,13.99
2022-09-16T05:57:29.744Z,14.01
2022-09-16T05:58:30.478Z,14.02
2022-09-16T06:23:28.141Z,14.32
2022-09-16T06:24:28.079Z,14.32
2022-09-16T06:27:27.552Z,14.35
2022-09-16T06:29:27.679Z,14.31
2022-09-16T07:18:23.586Z,15.53
2022-09-16T07:24:23.049Z,15.61
2022-09-16T07:26:22.858Z,15.63
2022-09-16T07:27:22.820Z,15.51
2022-09-16T07:29:22.671Z,15.41
2022-09-16T07:32:23.547Z,15.38
2022-09-16T07:33:22.395Z,15.35
2022-09-16T07:35:22.950Z,15.45
2022-09-16T07:38:21.971Z,15.42
2022-09-16T07:39:22.386Z,15.43
2022-09-16T07:42:47.421Z,15.45
2022-09-16T07:43:47.495Z,15.59
2022-09-16T07:45:29.805Z,15.68
2022-09-16T07:46:29.673Z,15.76
2022-09-16T07:47:29.602Z,15.88
2022-09-16T07:48:34.396Z,16.00
2022-09-16T07:49:29.444Z,16.25
2022-09-16T07:50:29.483Z,16.37
2022-09-16T07:51:29.294Z,16.26
2022-09-16T07:52:29.215Z,16.33
2022-09-16T07:53:29.610Z,16.48
2022-09-16T07:54:29.062Z,16.57
2022-09-16T07:55:28.989Z,16.70
2022-09-16T07:56:28.927Z,16.59
2022-09-16T07:57:28.832Z,16.63
2022-09-16T07:58:28.756Z,16.73
2022-09-16T07:59:28.685Z,16.70
2022-09-16T08:00:28.608Z,16.77
2022-09-16T08:01:28.578Z,16.80
2022-09-16T08:02:28.606Z,16.85
2022-09-16T08:03:28.377Z,16.73
2022-09-16T08:04:28.299Z,16.57
2022-09-16T08:21:27.128Z,16.08
2022-09-16T08:22:26.930Z,16.14
2022-09-16T08:24:30.204Z,16.14
2022-09-16T08:25:29.715Z,16.15
2022-09-16T08:26:29.234Z,16.20
2022-09-16T08:27:29.360Z,16.10
2022-09-16T08:28:39.865Z,16.08
2022-09-16T08:30:29.643Z,16.07
2022-09-16T08:33:28.901Z,16.20
2022-09-16T08:35:29.967Z,16.14
2022-09-16T08:36:28.472Z,16.15
2022-09-16T08:38:29.156Z,16.12
2022-09-16T08:40:28.379Z,16.08
2022-09-16T08:41:28.136Z,16.00
2022-09-16T08:43:28.347Z,16.29
2022-09-16T08:46:27.806Z,16.75
2022-09-16T08:48:29.046Z,16.93
2022-09-16T08:49:27.486Z,17.07
2022-09-16T08:50:27.405Z,17.11
2022-09-16T08:51:27.303Z,17.13
2022-09-16T08:52:27.455Z,17.05
2022-09-16T08:53:27.345Z,16.74
2022-09-16T08:54:27.440Z,16.66
2022-09-16T08:56:27.156Z,16.66
2022-09-16T09:00:26.649Z,16.41
2022-09-16T09:01:27.561Z,16.34
2022-09-16T09:09:25.928Z,15.86
2022-09-16T09:10:26.026Z,15.89
2022-09-16T09:40:24.013Z,17.43
2022-09-16T09:41:23.524Z,17.43
2022-09-16T09:42:23.856Z,17.38
2022-09-16T09:43:23.782Z,17.40
2022-09-16T09:45:23.224Z,17.44
2022-09-16T09:46:23.588Z,17.14
2022-09-16T09:47:23.282Z,17.26
2022-09-16T09:48:23.198Z,17.46
2022-09-16T09:49:23.529Z,17.54
2022-09-16T09:50:23.051Z,17.40
2022-09-16T09:51:23.378Z,17.25
2022-09-16T09:52:23.000Z,17.23
2022-09-16T09:53:22.583Z,17.39
2022-09-16T09:54:22.539Z,17.63
2022-09-16T09:55:22.432Z,17.76
2022-09-16T09:56:22.484Z,17.70
2022-09-16T09:57:22.513Z,17.63
2022-09-16T09:58:22.219Z,17.71
2022-09-16T09:59:22.127Z,17.51
2022-09-16T10:00:22.100Z,17.63
2022-09-16T10:01:22.047Z,17.70
2022-09-16T10:02:22.015Z,17.79
2022-09-16T10:03:21.825Z,17.96
2022-09-16T10:04:21.750Z,17.94
2022-09-16T10:05:21.676Z,17.94
2022-09-16T10:06:21.597Z,17.98
2022-09-16T10:07:21.524Z,18.07
2022-09-16T10:08:21.448Z,18.10
2022-09-16T10:09:21.374Z,18.14
2022-09-16T10:10:21.649Z,18.06
2022-09-16T10:11:21.224Z,18.11
2022-09-16T10:12:21.277Z,18.22
2022-09-16T10:13:21.071Z,18.13
2022-09-16T10:14:20.997Z,18.04
2022-09-16T10:15:20.923Z,18.06
2022-09-16T10:16:20.948Z,17.79
2022-09-16T10:17:20.772Z,17.63
2022-09-16T10:18:20.695Z,17.64
2022-09-16T10:19:20.760Z,17.69
2022-09-16T10:20:20.545Z,17.74
2022-09-16T10:21:20.476Z,17.70
2022-09-16T10:22:20.392Z,17.69
2022-09-16T10:23:20.323Z,17.74
2022-09-16T10:24:20.244Z,17.77
2022-09-16T10:25:20.170Z,17.81
2022-09-16T10:26:20.295Z,17.73
2022-09-16T10:27:20.022Z,17.77
2022-09-16T10:28:20.065Z,17.84
2022-09-16T10:29:19.904Z,17.71
2022-09-16T10:30:20.057Z,17.48
2022-09-16T10:31:19.763Z,17.29
2022-09-16T10:32:19.657Z,17.21
2022-09-16T10:33:19.566Z,17.17
2022-09-16T10:34:19.489Z,17.20
2022-09-16T10:35:19.412Z,17.23
2022-09-16T10:36:19.346Z,17.36
2022-09-16T10:37:19.263Z,17.46
2022-09-16T10:38:19.388Z,17.57
2022-09-16T10:39:19.109Z,17.74
2022-09-16T10:40:19.155Z,17.84
2022-09-16T10:41:19.300Z,17.85
2022-09-16T10:42:19.224Z,17.89
2022-09-16T10:43:18.807Z,17.98
2022-09-16T10:44:19.070Z,17.95
2022-09-16T10:45:18.655Z,17.95
2022-09-16T10:46:18.674Z,17.71
2022-09-16T10:47:18.553Z,17.82
2022-09-16T10:48:18.431Z,17.92
2022-09-16T10:49:18.352Z,18.10
2022-09-16T10:50:18.310Z,18.34
2022-09-16T10:51:18.203Z,18.55
2022-09-16T10:52:18.163Z,18.67
2022-09-16T10:53:18.096Z,18.76
2022-09-16T10:54:17.974Z,18.83
2022-09-16T10:55:17.949Z,18.80
2022-09-16T10:56:17.823Z,18.95
2022-09-16T10:57:17.749Z,18.95
2022-09-16T10:58:17.705Z,19.01
2022-09-16T10:59:17.597Z,18.99
2022-09-16T11:00:17.664Z,18.94
2022-09-16T11:01:18.802Z,19.06
2022-09-16T11:02:17.760Z,19.13
2022-09-16T11:03:17.295Z,18.99
2022-09-16T11:04:17.219Z,18.77
2022-09-16T11:05:17.195Z,18.57
2022-09-16T11:06:17.071Z,18.50
2022-09-16T11:07:16.995Z,18.49
2022-09-16T11:08:16.954Z,18.37
2022-09-16T11:09:16.845Z,18.40
2022-09-16T11:10:16.772Z,18.37
2022-09-16T11:11:16.700Z,18.39
2022-09-16T11:12:16.826Z,18.61
2022-09-16T11:13:16.697Z,18.94
2022-09-16T11:14:16.670Z,18.90
2022-09-16T11:15:16.432Z,18.94
2022-09-16T11:16:16.526Z,18.69
2022-09-16T11:17:16.589Z,18.44
2022-09-16T11:18:16.207Z,18.19
2022-09-16T11:19:16.098Z,18.13
2022-09-16T11:20:16.225Z,17.92
2022-09-16T11:21:15.945Z,18.00
2022-09-16T11:22:15.871Z,17.92
2022-09-16T11:23:15.798Z,17.89
2022-09-16T11:24:15.721Z,17.87
2022-09-16T11:25:15.646Z,17.69
2022-09-16T11:26:15.571Z,17.55
2022-09-16T11:27:15.496Z,17.40
2022-09-16T11:28:15.421Z,17.43
2022-09-16T11:29:15.346Z,17.43
2022-09-16T11:30:15.272Z,17.55
2022-09-16T11:31:15.266Z,17.57
2022-09-16T11:32:15.244Z,17.69
2022-09-16T11:34:14.971Z,17.81
2022-09-16T11:35:14.893Z,17.88
2022-09-16T11:36:14.816Z,18.25
2022-09-16T11:37:14.738Z,18.29
2022-09-16T11:38:14.665Z,18.59
2022-09-16T11:39:14.790Z,18.82
2022-09-16T11:40:14.558Z,18.95
2022-09-16T11:41:14.440Z,18.95
2022-09-16T11:42:14.361Z,18.92
2022-09-16T11:44:14.415Z,19.54
2022-09-16T11:45:14.140Z,19.45
2022-09-16T11:46:14.109Z,19.24
2022-09-16T11:47:14.022Z,19.06
2022-09-16T11:48:14.309Z,18.92
2022-09-16T12:00:14.744Z,17.74
2022-09-16T12:01:13.880Z,18.19
2022-09-16T12:05:16.612Z,20.37
2022-09-16T12:06:12.574Z,20.46
2022-09-16T12:07:12.503Z,20.24
2022-09-16T12:08:12.460Z,20.87
2022-09-16T12:09:15.014Z,20.84
2022-09-16T12:11:12.211Z,22.13
2022-09-16T12:13:34.657Z,21.42
2022-09-16T12:14:34.585Z,20.75
2022-09-16T12:16:34.444Z,19.58
2022-09-16T12:17:34.373Z,19.13
2022-09-16T12:18:34.303Z,18.76
2022-09-16T12:19:34.232Z,18.90
2022-09-16T12:20:34.696Z,18.92
2022-09-16T12:21:36.715Z,19.20
2022-09-16T12:22:34.017Z,19.14
2022-09-16T12:26:09.897Z,18.44
2022-09-16T12:27:09.616Z,18.29
2022-09-16T12:28:09.549Z,17.98
2022-09-16T12:29:09.568Z,18.07
2022-09-16T12:30:09.426Z,18.16
2022-09-16T12:31:12.534Z,18.09
2022-09-16T12:32:51.705Z,18.19
2022-09-16T12:33:51.631Z,18.18
2022-09-16T12:35:51.807Z,18.32
2022-09-16T12:36:51.410Z,18.32
2022-09-16T12:37:51.342Z,18.39
2022-09-16T12:42:41.057Z,18.44
2022-09-16T12:43:38.452Z,18.29
2022-09-16T12:44:38.626Z,18.14
2022-09-16T12:45:38.306Z,18.28
2022-09-16T12:46:38.324Z,18.22
2022-09-16T12:48:11.771Z,18.34
2022-09-16T12:48:38.092Z,18.32
2022-09-16T12:49:38.008Z,18.19
2022-09-16T12:50:37.932Z,18.19
2022-09-16T12:51:38.000Z,18.29
2022-09-16T12:52:37.783Z,18.21
2022-09-16T12:53:37.727Z,18.04
2022-09-16T12:54:51.338Z,18.02
2022-09-16T12:55:37.562Z,17.98
2022-09-16T12:56:37.523Z,17.94
2022-09-16T12:57:37.411Z,17.85
2022-09-16T12:58:37.335Z,17.95
2022-09-16T12:59:37.261Z,17.94
2022-09-16T13:00:37.217Z,18.14
2022-09-16T13:01:37.320Z,18.74
2022-09-16T13:02:37.146Z,18.87
2022-09-16T13:03:36.965Z,18.98
2022-09-16T13:04:36.887Z,19.23
2022-09-16T13:05:36.813Z,18.98
2022-09-16T13:06:36.739Z,18.79
2022-09-16T13:07:36.788Z,18.76
2022-09-16T13:08:36.591Z,18.80
2022-09-16T13:09:36.515Z,18.92
2022-09-16T13:11:09.611Z,18.90
2022-09-16T13:12:24.010Z,18.59
2022-09-16T13:12:43.658Z,18.32
2022-09-16T13:13:36.220Z,18.14
2022-09-16T13:14:36.244Z,18.21
2022-09-16T13:15:36.138Z,18.19
2022-09-16T13:16:35.992Z,18.34
2022-09-16T13:17:35.921Z,18.40
2022-09-16T13:18:35.845Z,18.44
2022-09-16T13:19:35.774Z,18.40
2022-09-16T13:20:35.697Z,18.31
2022-09-16T13:21:35.624Z,18.19
2022-09-16T13:22:35.653Z,18.32
2022-09-16T13:23:35.655Z,18.49
2022-09-16T13:24:35.398Z,18.90
2022-09-16T13:25:35.326Z,19.40
2022-09-16T13:26:35.252Z,19.45
2022-09-16T13:27:35.182Z,19.90
2022-09-16T13:28:35.109Z,19.94
2022-09-16T13:29:35.031Z,20.03
2022-09-16T13:33:10.764Z,20.30
2022-09-16T13:34:10.989Z,19.69
2022-09-16T13:35:10.468Z,19.63
2022-09-16T13:49:10.023Z,19.08
2022-09-16T13:58:08.846Z,18.79
2022-09-16T13:59:08.970Z,18.76
2022-09-16T14:02:08.698Z,18.57
2022-09-16T14:03:08.654Z,18.61
2022-09-16T14:04:08.474Z,18.65
2022-09-16T14:06:08.337Z,18.65
2022-09-16T14:07:08.151Z,18.53
2022-09-16T14:08:08.073Z,18.39
2022-09-16T14:09:08.000Z,18.46
2022-09-16T14:10:07.926Z,18.40
2022-09-16T14:11:07.854Z,18.14
2022-09-16T14:12:07.779Z,18.07
2022-09-16T14:13:07.708Z,18.03
2022-09-16T14:14:08.314Z,18.03
2022-09-16T14:16:07.561Z,17.94
2022-09-16T14:17:07.444Z,17.85
2022-09-16T14:18:07.336Z,17.77
2022-09-16T14:19:07.296Z,17.67
2022-09-16T14:20:07.220Z,17.66
2022-09-16T14:21:07.111Z,17.66
2022-09-16T14:22:07.151Z,17.48
2022-09-16T14:23:06.961Z,17.54
2022-09-16T14:24:06.887Z,17.60
2022-09-16T14:26:09.345Z,17.60
2022-09-16T14:28:51.691Z,17.48
2022-09-16T14:29:51.618Z,17.51
2022-09-16T14:30:51.613Z,17.35
2022-09-16T14:31:51.464Z,17.25
2022-09-16T14:32:51.590Z,17.18
2022-09-16T14:33:56.305Z,17.10
2022-09-16T14:34:51.236Z,17.17
2022-09-16T14:35:51.163Z,17.20
2022-09-16T14:36:51.287Z,17.20
2022-09-16T14:37:51.134Z,17.26
2022-09-16T14:38:50.937Z,17.17
2022-09-16T14:39:55.022Z,17.26
2022-09-16T14:40:50.783Z,17.60
2022-09-16T14:42:50.669Z,18.67
2022-09-16T14:44:48.052Z,20.20
2022-09-16T14:45:48.013Z,20.16
2022-09-16T14:46:47.903Z,20.16
2022-09-16T14:48:35.316Z,20.94
2022-09-16T14:49:35.344Z,20.80
2022-09-16T14:53:00.937Z,19.88
2022-09-16T14:54:58.249Z,20.57
2022-09-16T14:57:38.229Z,22.10
2022-09-16T14:58:38.160Z,22.30
2022-09-16T15:00:38.218Z,21.98
2022-09-16T15:02:37.928Z,22.13
2022-09-16T15:03:37.814Z,22.35
2022-09-16T15:04:37.734Z,22.07
2022-09-16T15:05:37.665Z,22.16
2022-09-16T15:06:37.638Z,22.02
2022-09-16T15:07:50.626Z,22.20
2022-09-16T15:08:43.661Z,22.39
2022-09-16T15:09:37.388Z,22.62
2022-09-16T15:10:51.490Z,21.98
2022-09-16T15:11:47.584Z,21.54
2022-09-16T15:12:37.182Z,21.61
2022-09-16T15:13:37.114Z,21.51
2022-09-16T15:14:37.048Z,20.74
2022-09-16T15:15:37.016Z,20.28
2022-09-16T15:16:36.909Z,19.95
2022-09-16T15:17:36.839Z,19.76
2022-09-16T15:18:36.773Z,19.93
2022-09-16T15:19:36.701Z,20.03
2022-09-16T15:20:36.635Z,19.73
2022-09-16T15:21:36.564Z,20.09
2022-09-16T15:22:36.495Z,20.03
2022-09-16T15:23:36.424Z,19.86
2022-09-16T15:24:36.474Z,19.72
2022-09-16T15:25:36.285Z,19.48
2022-09-16T15:26:36.214Z,19.48
2022-09-16T15:27:36.145Z,19.42
2022-09-16T15:28:36.108Z,19.38
2022-09-16T15:29:36.341Z,19.50
2022-09-16T15:30:35.933Z,19.11
2022-09-16T15:31:35.916Z,18.79
2022-09-16T15:32:35.789Z,18.90
2022-09-16T15:33:35.718Z,19.14
2022-09-16T15:34:35.847Z,19.14
2022-09-16T15:35:35.630Z,19.14
2022-09-16T15:36:35.504Z,18.87
2022-09-16T15:37:35.429Z,18.50
2022-09-16T15:38:35.360Z,18.19
2022-09-16T15:41:20.496Z,18.03
2022-09-16T15:42:17.628Z,17.96
2022-09-16T15:43:17.556Z,17.84
2022-09-16T15:44:17.483Z,17.69
2022-09-16T15:45:21.449Z,17.50
2022-09-16T15:46:17.382Z,17.43
2022-09-16T15:47:17.263Z,17.32
2022-09-16T15:48:17.191Z,17.21
2022-09-16T15:49:17.125Z,17.20
2022-09-16T15:51:16.967Z,17.26
2022-09-16T15:52:17.098Z,17.20
2022-09-16T15:54:16.825Z,17.05
2022-09-16T15:55:17.076Z,17.10
2022-09-16T15:56:16.667Z,17.17
2022-09-16T15:58:16.586Z,17.07
2022-09-16T15:59:16.570Z,16.98
2022-09-16T16:01:16.276Z,17.10
2022-09-16T16:03:16.065Z,16.95
2022-09-16T16:04:16.297Z,16.93
2022-09-16T16:05:16.151Z,16.89
2022-09-16T16:06:16.077Z,16.80
2022-09-16T16:07:15.762Z,16.74
2022-09-16T16:08:15.717Z,16.60
2022-09-16T16:09:15.612Z,16.50
2022-09-16T16:12:13.167Z,16.29
2022-09-16T16:17:25.451Z,16.14
2022-09-16T16:18:28.883Z,16.12
2022-09-16T16:19:25.210Z,16.26
2022-09-16T16:20:25.140Z,16.12
2022-09-16T16:21:25.056Z,16.23
2022-09-16T16:22:24.982Z,16.20
2022-09-16T16:23:24.908Z,16.20
2022-09-16T16:24:25.629Z,16.03
2022-09-16T16:30:25.073Z,15.91
2022-09-16T16:33:24.417Z,15.85
2022-09-16T16:49:46.172Z,15.12
2022-09-16T17:32:37.651Z,14.14
2022-09-16T17:39:29.177Z,14.10
2022-09-16T17:40:28.991Z,14.11
2022-09-16T17:41:28.854Z,14.05
2022-09-16T17:44:28.583Z,13.98
2022-09-16T17:45:28.704Z,13.80
2022-09-16T17:46:28.683Z,13.83
2022-09-16T17:47:28.345Z,13.84
2022-09-16T17:48:28.690Z,13.84
2022-09-16T17:49:28.392Z,13.80
2022-09-16T17:50:28.310Z,13.83
2022-09-16T17:52:01.240Z,13.78
2022-09-16T17:53:01.163Z,13.70
2022-09-16T17:53:27.872Z,13.71
2022-09-16T17:54:27.793Z,13.71
2022-09-16T17:56:10.195Z,13.74
2022-09-16T17:57:10.116Z,13.68
2022-09-16T17:58:10.035Z,13.63
2022-09-16T17:59:43.167Z,13.53
2022-09-16T18:00:09.879Z,13.66
2022-09-16T18:01:09.802Z,13.66
2022-09-16T18:02:09.720Z,13.62
2022-09-16T18:03:09.735Z,13.61
2022-09-16T18:04:09.677Z,13.52
2022-09-16T18:05:09.642Z,13.55
2022-09-16T18:40:17.040Z,12.53
2022-09-16T18:42:16.681Z,12.34
2022-09-16T18:43:16.636Z,12.23
2022-09-16T18:44:16.560Z,12.12
2022-09-16T18:45:16.680Z,12.16
2022-09-16T18:47:16.627Z,12.02
2022-09-16T18:49:16.206Z,11.81
2022-09-16T18:51:16.206Z,11.84
2022-09-16T18:53:15.849Z,11.76
2022-09-16T18:55:17.002Z,11.65
2022-09-16T18:56:15.734Z,11.72
2022-09-16T18:57:15.530Z,11.74
2022-09-16T18:59:23.869Z,11.75
2022-09-16T19:00:15.255Z,11.75
2022-09-16T19:01:15.287Z,11.72
2022-09-16T19:02:15.201Z,11.76
2022-09-16T19:04:14.970Z,11.65
2022-09-16T19:05:14.893Z,11.72
2022-09-16T19:06:15.485Z,11.60
2022-09-16T19:07:14.732Z,11.57
2022-09-16T19:08:16.176Z,11.61
2022-09-16T19:12:37.095Z,11.35
2022-09-16T19:43:45.082Z,10.83
2022-09-16T19:44:45.230Z,10.84
2022-09-16T19:45:44.697Z,10.77
2022-09-16T19:46:44.352Z,10.81
2022-09-16T19:49:44.116Z,10.69
2022-09-16T19:50:46.270Z,10.69
2022-09-16T19:51:43.920Z,10.66
2022-09-16T19:52:43.873Z,10.74
2022-09-16T19:53:43.762Z,10.71
2022-09-16T19:54:43.716Z,10.73
2022-09-16T19:55:43.848Z,10.77
2022-09-16T19:57:43.440Z,10.74
2022-09-16T20:00:55.893Z,10.75
2022-09-16T20:01:43.179Z,10.67
2022-09-16T20:02:43.783Z,10.69
2022-09-16T20:03:42.994Z,10.67
2022-09-16T20:04:42.938Z,10.63
2022-09-16T20:05:43.187Z,10.71
2022-09-16T20:20:25.915Z,10.75
2022-09-16T20:21:25.761Z,10.84
2022-09-16T20:22:25.640Z,10.80
2022-09-16T20:23:25.562Z,10.80
2022-09-16T20:24:25.482Z,10.74
2022-09-16T20:25:25.398Z,10.66
2022-09-16T20:26:25.338Z,10.71
2022-09-16T20:27:25.241Z,10.73
2022-09-16T20:28:25.164Z,10.71
2022-09-16T20:29:25.078Z,10.74
2022-09-16T20:30:25.000Z,10.75
2022-09-16T20:31:24.932Z,10.75
2022-09-16T20:32:24.839Z,10.73
2022-09-16T20:33:24.759Z,10.73
2022-09-16T20:34:24.679Z,10.77
2022-09-16T20:35:24.600Z,10.69
2022-09-16T20:36:24.634Z,10.75
2022-09-16T20:37:24.437Z,10.67
2022-09-16T20:38:24.357Z,10.73
2022-09-16T20:39:24.276Z,10.80
2022-09-16T20:40:24.439Z,10.77
2022-09-16T20:41:24.116Z,10.65
2022-09-16T20:42:24.037Z,10.66
2022-09-16T20:43:23.956Z,10.67
2022-09-16T20:44:23.875Z,10.62
2022-09-16T20:45:23.794Z,10.53
2022-09-16T20:46:23.716Z,10.55
2022-09-16T20:47:23.635Z,10.49
2022-09-16T20:48:23.557Z,10.56
2022-09-16T20:49:23.474Z,10.56
2022-09-16T20:50:23.394Z,10.55
2022-09-16T20:51:23.314Z,10.56
2022-09-16T20:52:23.353Z,10.58
2022-09-16T20:53:23.153Z,10.58
2022-09-16T20:54:23.075Z,10.58
2022-09-16T20:55:23.010Z,10.55
2022-09-16T20:56:22.974Z,10.56
2022-09-16T20:57:22.914Z,10.46
2022-09-16T21:03:40.950Z,10.36
2022-09-16T21:05:40.549Z,10.33
2022-09-16T21:06:40.465Z,10.33
2022-09-16T21:07:40.507Z,10.36
2022-09-16T21:08:40.307Z,10.34
2022-09-16T21:09:40.227Z,10.44
2022-09-16T21:11:32.730Z,10.44
2022-09-16T21:12:32.812Z,10.47
2022-09-16T21:13:32.531Z,10.46
2022-09-16T21:14:32.449Z,10.58
2022-09-16T21:15:32.405Z,10.58
2022-09-16T21:16:32.317Z,10.55
2022-09-16T21:17:32.209Z,10.59
2022-09-16T21:18:32.128Z,10.47
2022-09-16T21:19:32.048Z,10.56
2022-09-16T21:20:31.967Z,10.62
2022-09-16T21:21:31.886Z,10.65
2022-09-16T21:22:31.807Z,10.60
2022-09-16T21:23:31.845Z,10.69
2022-09-16T21:24:31.679Z,10.65
2022-09-16T21:25:31.565Z,10.65
2022-09-16T21:26:31.484Z,10.56
2022-09-16T21:27:31.403Z,10.56
2022-09-16T21:28:31.322Z,10.66
2022-09-16T21:29:31.397Z,10.71
2022-09-16T21:30:31.163Z,10.63
2022-09-16T21:31:31.158Z,10.63
2022-09-16T21:32:31.001Z,10.58
2022-09-16T21:33:30.923Z,10.69
2022-09-16T21:34:30.844Z,10.73
2022-09-16T21:35:30.764Z,10.71
2022-09-16T21:36:30.687Z,10.67
2022-09-16T21:37:30.602Z,10.63
2022-09-16T21:38:30.559Z,10.66
2022-09-16T21:39:30.567Z,10.66
2022-09-16T21:40:30.760Z,10.66
2022-09-16T21:41:30.281Z,10.71
2022-09-16T21:42:30.200Z,10.74
2022-09-16T21:43:30.122Z,10.85
2022-09-16T21:52:26.974Z,11.05
2022-09-16T21:53:26.886Z,11.23
2022-09-16T21:54:26.856Z,11.31
2022-09-16T21:55:26.846Z,11.32
2022-09-16T21:57:26.773Z,11.41
2022-09-16T21:58:26.488Z,11.43
2022-09-16T21:59:26.443Z,11.53
2022-09-16T22:00:26.358Z,11.56
2022-09-16T22:01:26.309Z,11.54
2022-09-16T22:02:29.099Z,11.67
2022-09-16T22:03:26.085Z,11.65
2022-09-16T22:05:25.924Z,11.69
2022-09-16T22:06:25.884Z,11.71
2022-09-16T22:07:25.798Z,11.78
2022-09-16T22:08:25.718Z,11.78
2022-09-16T22:09:25.641Z,11.78
2022-09-16T22:10:25.524Z,11.72
2022-09-16T22:11:25.565Z,11.78
2022-09-16T22:12:25.401Z,11.78
2022-09-16T22:13:25.286Z,11.72
2022-09-16T22:14:25.544Z,11.71
2022-09-16T22:16:25.348Z,11.72
2022-09-16T22:17:25.053Z,11.67
2022-09-16T22:18:24.918Z,11.67
2022-09-16T22:19:25.039Z,11.68
2022-09-16T22:20:24.759Z,11.68
2022-09-16T22:21:24.678Z,11.65
2022-09-16T22:22:24.765Z,11.65
2022-09-16T22:23:24.522Z,11.51
2022-09-16T22:24:24.435Z,11.56
2022-09-16T22:25:24.360Z,11.54
2022-09-16T22:26:24.239Z,11.59
2022-09-16T22:27:24.276Z,11.57
2022-09-16T22:28:24.117Z,11.53
2022-09-16T22:29:24.003Z,11.57
2022-09-16T22:30:24.121Z,11.57
2022-09-16T22:31:23.930Z,11.46
2022-09-16T22:32:23.797Z,11.54
2022-09-16T22:33:23.682Z,11.36
2022-09-16T22:34:23.638Z,11.34
2022-09-16T22:35:23.725Z,11.17
2022-09-16T22:36:23.441Z,11.20
2022-09-16T22:37:23.364Z,11.14
2022-09-16T22:38:23.278Z,11.02
2022-09-16T22:39:23.237Z,10.99
2022-09-16T22:40:23.161Z,10.95
2022-09-16T22:41:23.083Z,10.95
2022-09-16T22:42:22.991Z,10.87
2022-09-16T22:43:22.996Z,10.78
2022-09-16T22:44:23.035Z,10.78
2022-09-16T22:45:22.753Z,10.74
2022-09-16T22:46:23.130Z,10.62
2022-09-16T22:47:22.560Z,10.53
2022-09-16T22:48:22.478Z,10.55
2022-09-16T22:49:22.437Z,10.41
2022-09-16T22:50:22.359Z,10.41
2022-09-16T22:51:22.279Z,10.43
2022-09-16T22:52:22.156Z,10.36
2022-09-16T22:53:22.080Z,10.37
2022-09-16T22:54:21.996Z,10.33
2022-09-16T22:55:21.954Z,10.26
2022-09-16T22:56:21.843Z,10.22
2022-09-16T22:57:21.756Z,10.28
2022-09-16T22:59:22.922Z,10.21
2022-09-16T23:00:21.515Z,10.16
2022-09-16T23:01:21.482Z,10.07
2022-09-16T23:02:21.355Z,10.01
2022-09-16T23:03:21.280Z,9.98
2022-09-16T23:04:21.272Z,10.08
2022-09-16T23:05:21.109Z,10.03
2022-09-16T23:06:21.033Z,10.11
2022-09-16T23:07:20.951Z,10.01
2022-09-16T23:08:20.871Z,10.10
2022-09-16T23:09:20.788Z,10.15
2022-09-16T23:10:20.708Z,10.19
2022-09-16T23:11:20.627Z,10.08
2022-09-16T23:12:20.585Z,10.06
2022-09-16T23:13:20.466Z,9.92
2022-09-16T23:14:20.385Z,10.07
2022-09-16T23:15:20.469Z,10.01
2022-09-16T23:19:20.729Z,10.06
2022-09-16T23:21:19.858Z,10.15
2022-09-16T23:22:19.771Z,10.22
2022-09-16T23:24:19.580Z,10.23
2022-09-16T23:25:19.500Z,10.26
2022-09-16T23:26:19.416Z,10.29
2022-09-16T23:27:19.335Z,10.33
2022-09-16T23:28:19.256Z,10.43
2022-09-16T23:29:19.175Z,10.47
2022-09-16T23:34:27.994Z,10.71
2022-09-16T23:35:27.796Z,10.83
2022-09-16T23:36:27.717Z,10.95
2022-09-16T23:37:27.635Z,10.99
2022-09-16T23:38:27.556Z,10.92
2022-09-16T23:39:27.475Z,10.98
2022-09-16T23:40:27.538Z,11.00